Time;durP1;ratioP1;P1;durP2;ratioP2;P2;SDS_P1;SDS_P2;PMS_P1;PMS_P2;Temp;Humidity;BMP_temperature;BMP_pressure;BME280_temperature;BME280_humidity;BME280_pressure;Samples;Min_cycle;Max_cycle;Signal;HPM_P1;HPM_P2
2021/12/28 00:01:15;;;;;;;;;;;;;;;16.85;57.29;100595.00;6160870;23;1502;-84
2021/12/28 00:03:44;;;;;;;;;;;;;;;16.83;57.86;100586.28;6162868;23;1148;-87
2021/12/28 00:06:11;;;;;;;;;;;;;;;16.76;58.17;100576.19;6163148;23;1567;-89
2021/12/28 00:08:40;;;;;;;;;;;;;;;16.70;58.11;100583.72;6161973;23;1469;-86
2021/12/28 00:11:07;;;;;;;;;;;;;;;16.65;58.62;100577.91;6167301;23;967;-85
2021/12/28 00:13:34;;;;;;;;;;;;;;;16.60;58.66;100568.56;6160781;23;1934;-84
2021/12/28 00:16:24;;;;;;;;;;;;;;;16.67;58.47;100589.31;6162253;23;1074;-88
2021/12/28 00:18:53;;;;;;;;;;;;;;;16.39;58.39;100588.00;6163387;23;1057;-86
2021/12/28 00:21:19;;;;;;;;;;;;;;;15.96;60.01;100585.25;6162342;23;1003;-83
2021/12/28 00:23:46;;;;;;;;;;;;;;;15.73;61.02;100595.84;6163589;23;1055;-86
2021/12/28 00:26:13;;;;;;;;;;;;;;;15.55;61.96;100602.56;6162703;23;1624;-86
2021/12/28 00:28:42;;;;;;;;;;;;;;;15.47;59.73;100604.00;6162108;23;994;-84
2021/12/28 00:31:11;;;;;;;;;;;;;;;15.76;60.66;100600.97;6163482;23;1469;-89
2021/12/28 00:33:37;;;;;;;;;;;;;;;15.91;60.20;100594.41;6162118;23;1934;-86
2021/12/28 00:36:06;;;;;;;;;;;;;;;16.15;58.97;100596.13;6161345;23;1162;-87
2021/12/28 00:38:33;;;;;;;;;;;;;;;16.44;58.09;100598.31;6163719;23;991;-88
2021/12/28 00:41:00;;;;;;;;;;;;;;;16.54;58.03;100590.44;6162029;23;1015;-83
2021/12/28 00:43:29;;;;;;;;;;;;;;;16.29;59.28;100603.91;6160911;23;1047;-87
2021/12/28 00:45:55;;;;;;;;;;;;;;;16.65;57.57;100588.59;6161987;23;1453;-83
2021/12/28 00:48:23;;;;;;;;;;;;;;;16.75;58.36;100585.16;6161272;23;1032;-88
2021/12/28 00:50:52;;;;;;;;;;;;;;;16.63;58.02;100601.22;6161554;23;1035;-84
2021/12/28 00:53:19;;;;;;;;;;;;;;;16.69;58.73;100599.84;6162932;23;1893;-87
2021/12/28 00:55:46;;;;;;;;;;;;;;;16.72;58.31;100602.28;6164818;23;971;-83
2021/12/28 00:58:12;;;;;;;;;;;;;;;16.77;57.95;100599.22;6161847;23;1082;-84
2021/12/28 01:00:40;;;;;;;;;;;;;;;16.85;57.89;100594.13;6162750;23;1512;-88
2021/12/28 01:03:07;;;;;;;;;;;;;;;16.92;57.29;100602.50;6162701;23;1674;-84
2021/12/28 01:05:34;;;;;;;;;;;;;;;16.94;57.69;100588.06;6162962;23;1023;-86
2021/12/28 01:08:01;;;;;;;;;;;;;;;16.98;57.46;100584.16;6160469;23;1034;-84
2021/12/28 01:10:31;;;;;;;;;;;;;;;16.87;57.83;100589.50;6164960;23;982;-88
2021/12/28 01:12:58;;;;;;;;;;;;;;;16.94;57.72;100572.03;6161261;23;1896;-88
2021/12/28 01:15:26;;;;;;;;;;;;;;;16.89;57.89;100579.56;6162581;23;971;-88
2021/12/28 01:17:52;;;;;;;;;;;;;;;16.84;57.72;100581.78;6162390;23;971;-84
2021/12/28 01:20:20;;;;;;;;;;;;;;;16.90;57.58;100573.25;6161470;23;1638;-86
2021/12/28 01:22:47;;;;;;;;;;;;;;;16.88;57.96;100567.19;6162751;23;1710;-84
2021/12/28 01:25:15;;;;;;;;;;;;;;;16.84;58.26;100560.41;6161658;23;1023;-84
2021/12/28 01:27:49;;;;;;;;;;;;;;;16.86;57.53;100563.81;6162626;23;1241;-85
2021/12/28 01:30:18;;;;;;;;;;;;;;;16.93;57.37;100575.69;6161046;23;1086;-88
2021/12/28 01:32:45;;;;;;;;;;;;;;;16.91;57.43;100569.63;6160839;23;1893;-87
2021/12/28 01:35:14;;;;;;;;;;;;;;;16.94;57.32;100577.38;6161192;23;1580;-86
2021/12/28 01:37:41;;;;;;;;;;;;;;;16.82;57.42;100578.38;6162253;23;1069;-85
2021/12/28 01:40:09;;;;;;;;;;;;;;;16.78;58.23;100567.06;6160686;23;1015;-83
2021/12/28 01:42:53;;;;;;;;;;;;;;;16.74;58.20;100586.13;6179421;23;1003;-87
2021/12/28 01:45:29;;;;;;;;;;;;;;;16.38;58.70;100580.13;6159195;23;1106;-84
2021/12/28 01:47:56;;;;;;;;;;;;;;;16.04;59.46;100566.81;6161899;23;1015;-88
2021/12/28 01:50:22;;;;;;;;;;;;;;;15.82;61.35;100578.31;6163729;23;1070;-83
2021/12/28 01:52:49;;;;;;;;;;;;;;;15.65;61.24;100571.56;6160333;23;1896;-88
2021/12/28 01:55:15;;;;;;;;;;;;;;;15.60;60.59;100595.09;6161095;23;983;-84
2021/12/28 01:57:42;;;;;;;;;;;;;;;15.87;60.44;100590.28;6163836;23;1203;-87
2021/12/28 02:00:09;;;;;;;;;;;;;;;16.00;60.62;100584.03;6162198;23;1042;-84
2021/12/28 02:02:37;;;;;;;;;;;;;;;16.32;58.58;100565.47;6163010;23;1395;-83
2021/12/28 02:05:04;;;;;;;;;;;;;;;16.65;58.90;100577.91;6160452;23;990;-86
2021/12/28 02:07:30;;;;;;;;;;;;;;;16.73;58.13;100579.94;6164019;23;1039;-87
2021/12/28 02:09:57;;;;;;;;;;;;;;;16.42;58.28;100581.59;6160407;23;1060;-88
2021/12/28 02:12:24;;;;;;;;;;;;;;;16.75;58.32;100590.50;6163586;23;1900;-87
2021/12/28 02:14:50;;;;;;;;;;;;;;;16.71;57.93;100603.25;6160729;23;1051;-84
2021/12/28 02:17:17;;;;;;;;;;;;;;;16.74;58.23;100580.81;6159280;23;1097;-83
2021/12/28 02:19:45;;;;;;;;;;;;;;;16.74;58.50;100583.47;6159606;23;979;-83
2021/12/28 02:22:12;;;;;;;;;;;;;;;16.72;58.57;100574.75;6159031;23;958;-83
2021/12/28 02:24:39;;;;;;;;;;;;;;;16.61;57.77;100581.81;6159067;23;749;-83
2021/12/28 02:27:06;;;;;;;;;;;;;;;16.62;57.90;100577.31;6159129;23;999;-88
2021/12/28 02:29:32;;;;;;;;;;;;;;;16.67;58.55;100572.41;6159253;23;1354;-83
2021/12/28 02:31:59;;;;;;;;;;;;;;;16.58;58.03;100573.19;6159210;23;1934;-88
2021/12/28 02:34:25;;;;;;;;;;;;;;;16.58;57.86;100566.03;6159811;23;1533;-83
2021/12/28 02:36:58;;;;;;;;;;;;;;;16.56;58.23;100572.47;6159330;23;987;-86
2021/12/28 02:39:26;;;;;;;;;;;;;;;16.77;57.68;100570.72;6162001;23;971;-88
2021/12/28 02:41:52;;;;;;;;;;;;;;;16.73;58.62;100557.72;6159612;23;991;-89
2021/12/28 02:44:19;;;;;;;;;;;;;;;16.80;58.48;100554.44;6166847;23;1568;-87
2021/12/28 02:46:45;;;;;;;;;;;;;;;16.89;58.12;100559.06;6159357;23;1015;-83
2021/12/28 02:49:12;;;;;;;;;;;;;;;16.94;57.58;100557.81;6159183;23;987;-87
2021/12/28 02:51:38;;;;;;;;;;;;;;;16.89;58.08;100542.16;6163613;23;1517;-86
2021/12/28 02:54:05;;;;;;;;;;;;;;;16.82;57.94;100535.66;6161832;23;1907;-84
2021/12/28 02:56:33;;;;;;;;;;;;;;;16.99;57.82;100532.44;6158784;23;1457;-83
2021/12/28 02:59:01;;;;;;;;;;;;;;;17.14;57.60;100532.13;6158361;23;1141;-83
2021/12/28 03:01:28;;;;;;;;;;;;;;;16.95;57.17;100541.69;6138037;23;3633;-39
2021/12/28 03:03:56;;;;;;;;;;;;;;;17.00;57.15;100542.13;6154782;23;1041;-40
2021/12/28 03:06:23;;;;;;;;;;;;;;;16.98;58.03;100537.91;6155844;23;1037;-39
2021/12/28 03:08:53;;;;;;;;;;;;;;;16.98;57.84;100520.03;6155421;23;1118;-39
2021/12/28 03:11:20;;;;;;;;;;;;;;;16.92;58.11;100539.25;6155712;23;1050;-40
2021/12/28 03:13:49;;;;;;;;;;;;;;;16.90;57.52;100538.53;6155097;23;1901;-39
2021/12/28 03:16:16;;;;;;;;;;;;;;;16.89;57.83;100537.69;6155571;23;1223;-39
2021/12/28 03:18:43;;;;;;;;;;;;;;;16.81;58.28;100533.91;6155490;23;1165;-39
2021/12/28 03:21:10;;;;;;;;;;;;;;;16.85;58.37;100530.03;6155327;23;1146;-39
2021/12/28 03:23:37;;;;;;;;;;;;;;;16.80;58.59;100532.22;6155797;23;991;-39
2021/12/28 03:26:04;;;;;;;;;;;;;;;16.57;58.26;100558.97;6155677;23;1126;-39
2021/12/28 03:28:32;;;;;;;;;;;;;;;16.17;59.94;100562.19;6155617;23;1075;-39
2021/12/28 03:31:01;;;;;;;;;;;;;;;15.99;60.58;100560.97;6155571;23;1147;-40
2021/12/28 03:33:32;;;;;;;;;;;;;;;15.86;60.47;100559.28;6155771;23;1901;-39
2021/12/28 03:35:59;;;;;;;;;;;;;;;15.75;61.09;100571.75;6157569;23;1038;-39
2021/12/28 03:38:25;;;;;;;;;;;;;;;15.63;60.87;100562.84;6157748;23;1188;-39
2021/12/28 03:40:53;;;;;;;;;;;;;;;15.56;60.71;100565.16;6157965;23;1077;-39
2021/12/28 03:43:20;;;;;;;;;;;;;;;15.52;60.67;100577.84;6157076;23;1106;-39
2021/12/28 03:45:47;;;;;;;;;;;;;;;15.49;61.10;100575.41;6156619;23;1026;-39
2021/12/28 03:48:15;;;;;;;;;;;;;;;15.43;60.22;100585.69;6157536;23;1037;-39
2021/12/28 03:50:42;;;;;;;;;;;;;;;15.43;60.63;100586.53;6157669;23;1931;-39
2021/12/28 03:53:08;;;;;;;;;;;;;;;15.41;60.90;100568.97;6157396;23;2034;-39
2021/12/28 03:55:36;;;;;;;;;;;;;;;15.37;60.41;100586.16;6157540;23;1034;-39
2021/12/28 03:58:03;;;;;;;;;;;;;;;15.29;61.67;100582.25;6157107;23;1110;-39
2021/12/28 04:00:31;;;;;;;;;;;;;;;15.28;60.40;100587.72;6157047;23;1079;-39
2021/12/28 04:02:57;;;;;;;;;;;;;;;15.23;61.61;100581.88;6156825;23;1383;-39
2021/12/28 04:05:25;;;;;;;;;;;;;;;15.17;61.19;100588.50;6157410;23;1075;-39
2021/12/28 04:07:52;;;;;;;;;;;;;;;15.11;60.62;100583.63;6156939;23;1114;-39
2021/12/28 04:10:27;;;;;;;;;;;;;;;15.09;61.33;100585.56;6157016;23;1114;-39
2021/12/28 04:12:54;;;;;;;;;;;;;;;15.02;60.63;100579.88;6157300;23;1893;-39
2021/12/28 04:15:20;;;;;;;;;;;;;;;14.99;60.85;100580.06;6157348;23;1053;-39
2021/12/28 04:17:47;;;;;;;;;;;;;;;14.95;62.36;100583.94;6157157;23;1083;-39
2021/12/28 04:20:15;;;;;;;;;;;;;;;14.93;62.17;100580.53;6157385;23;1098;-39
2021/12/28 04:22:43;;;;;;;;;;;;;;;14.91;62.18;100579.81;6157354;23;1081;-38
2021/12/28 04:25:11;;;;;;;;;;;;;;;14.89;61.02;100574.56;6156813;23;1233;-39
2021/12/28 04:27:37;;;;;;;;;;;;;;;14.89;60.70;100595.88;6156844;23;1063;-39
2021/12/28 04:30:06;;;;;;;;;;;;;;;14.88;60.79;100583.53;6157057;23;1023;-39
2021/12/28 04:32:32;;;;;;;;;;;;;;;14.82;61.51;100585.78;6157144;23;1896;-39
2021/12/28 04:34:59;;;;;;;;;;;;;;;14.82;60.97;100583.13;6157616;23;1070;-39
2021/12/28 04:37:25;;;;;;;;;;;;;;;14.83;62.79;100601.66;6157161;23;1086;-39
2021/12/28 04:39:53;;;;;;;;;;;;;;;14.81;62.57;100595.59;6157126;23;999;-39
2021/12/28 04:42:20;;;;;;;;;;;;;;;14.77;61.67;100590.63;6156560;23;1091;-39
2021/12/28 04:44:49;;;;;;;;;;;;;;;14.80;61.43;100593.91;6156746;23;1079;-39
2021/12/28 04:47:16;;;;;;;;;;;;;;;14.78;61.88;100598.50;6156294;23;1063;-39
2021/12/28 04:49:43;;;;;;;;;;;;;;;14.78;62.65;100600.28;6157478;23;1063;-39
2021/12/28 04:52:09;;;;;;;;;;;;;;;14.78;62.31;100609.16;6156792;23;1073;-39
2021/12/28 04:54:37;;;;;;;;;;;;;;;14.77;61.67;100609.25;6156905;23;1897;-39
2021/12/28 04:57:05;;;;;;;;;;;;;;;14.74;62.77;100609.47;6156940;23;994;-39
2021/12/28 04:59:32;;;;;;;;;;;;;;;14.71;62.72;100607.88;6156978;23;1125;-39
2021/12/28 05:01:59;;;;;;;;;;;;;;;14.64;62.40;100602.16;6156432;23;1450;-39
2021/12/28 05:04:25;;;;;;;;;;;;;;;14.61;62.63;100613.00;6156896;23;1094;-38
2021/12/28 05:06:52;;;;;;;;;;;;;;;14.60;62.20;100602.47;6156679;23;1070;-39
2021/12/28 05:09:19;;;;;;;;;;;;;;;14.58;62.56;100594.59;6156927;23;955;-39
2021/12/28 05:11:46;;;;;;;;;;;;;;;14.57;62.82;100600.91;6156885;23;1033;-39
2021/12/28 05:14:15;;;;;;;;;;;;;;;14.56;63.07;100601.84;6156342;23;1936;-39
2021/12/28 05:16:42;;;;;;;;;;;;;;;14.58;62.58;100607.06;6156327;23;1103;-39
2021/12/28 05:19:08;;;;;;;;;;;;;;;14.63;62.68;100599.59;6157109;23;1050;-39
2021/12/28 05:21:35;;;;;;;;;;;;;;;14.62;62.65;100601.44;6156448;23;1129;-39
2021/12/28 05:24:02;;;;;;;;;;;;;;;14.65;62.81;100611.84;6156703;23;1070;-38
2021/12/28 05:26:29;;;;;;;;;;;;;;;14.61;61.79;100610.34;6156725;23;1030;-38
2021/12/28 05:28:55;;;;;;;;;;;;;;;14.63;62.62;100613.75;6156361;23;1062;-39
2021/12/28 05:31:25;;;;;;;;;;;;;;;14.58;61.91;100607.06;6157023;23;1103;-40
2021/12/28 05:33:52;;;;;;;;;;;;;;;14.58;62.44;100607.06;6156875;23;1901;-39
2021/12/28 05:36:19;;;;;;;;;;;;;;;14.59;62.54;100606.94;6156645;23;1078;-39
2021/12/28 05:38:45;;;;;;;;;;;;;;;14.57;62.01;100606.22;6156821;23;999;-39
2021/12/28 05:41:11;;;;;;;;;;;;;;;14.53;62.78;100600.22;6156601;23;1073;-39
2021/12/28 05:43:38;;;;;;;;;;;;;;;14.45;62.72;100601.75;6156403;23;1146;-39
2021/12/28 05:46:05;;;;;;;;;;;;;;;14.41;62.13;100592.28;6156467;23;1077;-39
2021/12/28 05:48:33;;;;;;;;;;;;;;;14.38;62.60;100606.63;6156407;23;1086;-40
2021/12/28 05:50:59;;;;;;;;;;;;;;;14.43;63.55;100614.31;6156563;23;1078;-39
2021/12/28 05:53:26;;;;;;;;;;;;;;;14.43;62.21;100614.31;6155968;23;1940;-39
2021/12/28 05:55:52;;;;;;;;;;;;;;;14.44;62.66;100626.63;6156317;23;1071;-39
2021/12/28 05:58:19;;;;;;;;;;;;;;;14.51;63.08;100643.88;6156336;23;994;-39
2021/12/28 06:00:45;;;;;;;;;;;;;;;14.47;62.98;100631.75;6156530;23;1070;-39
2021/12/28 06:03:11;;;;;;;;;;;;;;;14.49;63.17;100640.47;6155724;23;1469;-39
2021/12/28 06:05:39;;;;;;;;;;;;;;;14.48;62.77;100641.41;6156692;23;1077;-39
2021/12/28 06:08:06;;;;;;;;;;;;;;;14.46;61.99;100648.66;6156489;23;1077;-39
2021/12/28 06:10:32;;;;;;;;;;;;;;;14.41;63.09;100642.84;6156216;23;1050;-39
2021/12/28 06:12:59;;;;;;;;;;;;;;;14.42;63.28;100640.03;6156303;23;1074;-39
2021/12/28 06:15:25;;;;;;;;;;;;;;;14.42;63.25;100636.53;6156199;23;1893;-39
2021/12/28 06:17:52;;;;;;;;;;;;;;;14.39;61.70;100640.28;6156064;23;1018;-39
2021/12/28 06:20:18;;;;;;;;;;;;;;;14.39;62.86;100648.25;6156651;23;1085;-39
2021/12/28 06:22:46;;;;;;;;;;;;;;;14.41;62.16;100648.16;6156250;23;1061;-39
2021/12/28 06:25:12;;;;;;;;;;;;;;;14.36;61.60;100644.97;6155860;23;1139;-39
2021/12/28 06:27:39;;;;;;;;;;;;;;;14.28;62.80;100637.50;6156190;23;1002;-39
2021/12/28 06:30:06;;;;;;;;;;;;;;;14.26;61.91;100650.91;6156073;23;1042;-38
2021/12/28 06:32:32;;;;;;;;;;;;;;;14.26;62.09;100645.59;6155649;23;1099;-39
2021/12/28 06:34:59;;;;;;;;;;;;;;;14.28;63.47;100643.69;6156567;23;1931;-39
2021/12/28 06:37:25;;;;;;;;;;;;;;;14.28;62.73;100654.34;6156130;23;1061;-39
2021/12/28 06:39:53;;;;;;;;;;;;;;;14.26;62.21;100656.22;6155750;23;1115;-39
2021/12/28 06:42:20;;;;;;;;;;;;;;;14.33;63.22;100657.50;6156006;23;1023;-39
2021/12/28 06:44:47;;;;;;;;;;;;;;;14.34;62.63;100653.03;6155860;23;2034;-39
2021/12/28 06:47:14;;;;;;;;;;;;;;;14.36;62.13;100667.06;6156050;23;1078;-39
2021/12/28 06:49:41;;;;;;;;;;;;;;;14.33;62.93;100660.16;6156084;23;1063;-39
2021/12/28 06:52:07;;;;;;;;;;;;;;;14.37;62.83;100671.47;6155971;23;1086;-38
2021/12/28 06:54:37;;;;;;;;;;;;;;;14.37;61.93;100659.97;6155478;23;1940;-39
2021/12/28 06:57:07;;;;;;;;;;;;;;;14.35;62.47;100660.06;6155643;23;1067;-39
2021/12/28 06:59:33;;;;;;;;;;;;;;;14.33;62.76;100664.66;6156124;23;1050;-39
2021/12/28 07:02:00;;;;;;;;;;;;;;;14.28;62.40;100657.00;6155565;23;1411;-39
2021/12/28 07:04:26;;;;;;;;;;;;;;;14.29;63.26;100671.16;6156354;23;1041;-39
2021/12/28 07:06:53;;;;;;;;;;;;;;;14.22;62.64;100664.53;6155919;23;1077;-39
2021/12/28 07:09:19;;;;;;;;;;;;;;;14.24;62.92;100674.09;6156409;23;1155;-39
2021/12/28 07:11:46;;;;;;;;;;;;;;;14.18;63.56;100663.91;6158004;23;1073;-39
2021/12/28 07:14:14;;;;;;;;;;;;;;;14.23;63.44;100661.78;6157738;23;1940;-40
2021/12/28 07:16:40;;;;;;;;;;;;;;;14.28;63.23;100664.97;6157594;23;1067;-39
2021/12/28 07:19:10;;;;;;;;;;;;;;;14.26;61.89;100655.38;6157772;23;1114;-39
2021/12/28 07:21:36;;;;;;;;;;;;;;;14.25;62.22;100640.41;6157841;23;1057;-39
2021/12/28 07:24:03;;;;;;;;;;;;;;;14.26;61.63;100664.22;6157417;23;1063;-39
2021/12/28 07:26:29;;;;;;;;;;;;;;;14.23;61.69;100659.13;6157746;23;1034;-39
2021/12/28 07:28:56;;;;;;;;;;;;;;;14.21;63.16;100649.56;6157503;23;1087;-39
2021/12/28 07:31:23;;;;;;;;;;;;;;;14.19;63.25;100654.13;6157951;23;1046;-40
2021/12/28 07:33:50;;;;;;;;;;;;;;;14.20;62.16;100651.34;6157571;23;1901;-39
2021/12/28 07:36:16;;;;;;;;;;;;;;;14.20;63.46;100646.03;6158718;23;1064;-39
2021/12/28 07:38:43;;;;;;;;;;;;;;;14.19;62.82;100657.63;6157726;23;1085;-39
2021/12/28 07:41:09;;;;;;;;;;;;;;;14.16;62.41;100652.50;6158090;23;1063;-39
2021/12/28 07:43:35;;;;;;;;;;;;;;;14.13;62.50;100658.91;6157721;23;1081;-38
2021/12/28 07:46:02;;;;;;;;;;;;;;;14.13;62.81;100652.75;6157139;23;1022;-39
2021/12/28 07:48:30;;;;;;;;;;;;;;;14.19;62.59;100664.78;6157668;23;995;-39
2021/12/28 07:50:56;;;;;;;;;;;;;;;14.16;61.85;100672.94;6157171;23;1142;-39
2021/12/28 07:53:23;;;;;;;;;;;;;;;14.21;63.16;100673.50;6157443;23;1107;-40
2021/12/28 07:55:49;;;;;;;;;;;;;;;14.24;61.55;100678.59;6157517;23;1893;-39
2021/12/28 07:58:16;;;;;;;;;;;;;;;14.21;62.96;100670.84;6157487;23;1168;-39
2021/12/28 08:00:43;;;;;;;;;;;;;;;14.21;62.78;100677.00;6157426;23;987;-39
2021/12/28 08:03:09;;;;;;;;;;;;;;;14.22;61.71;100669.84;6156900;23;1434;-39
2021/12/28 08:05:38;;;;;;;;;;;;;;;14.20;62.26;100661.97;6157517;23;1087;-39
2021/12/28 08:08:04;;;;;;;;;;;;;;;14.22;62.23;100685.81;6157329;23;1123;-39
2021/12/28 08:10:31;;;;;;;;;;;;;;;14.20;61.77;100680.59;6157067;23;1127;-39
2021/12/28 08:12:57;;;;;;;;;;;;;;;14.17;61.64;100687.97;6157408;23;1077;-39
2021/12/28 08:15:26;;;;;;;;;;;;;;;14.17;62.04;100699.44;6157231;23;1897;-38
2021/12/28 08:17:52;;;;;;;;;;;;;;;14.18;62.75;100681.66;6157002;23;1150;-39
2021/12/28 08:20:19;;;;;;;;;;;;;;;14.17;63.15;100688.81;6156926;23;1063;-39
2021/12/28 08:22:48;;;;;;;;;;;;;;;14.10;61.94;100682.19;6157079;23;1006;-39
2021/12/28 08:25:16;;;;;;;;;;;;;;;14.10;61.96;100693.69;6156984;23;1071;-39
2021/12/28 08:27:43;;;;;;;;;;;;;;;14.15;63.00;100684.56;6157223;23;1070;-39
2021/12/28 08:30:11;;;;;;;;;;;;;;;14.11;62.73;100689.22;6157059;23;1077;-39
2021/12/28 08:32:38;;;;;;;;;;;;;;;14.09;61.94;100694.66;6157209;23;1018;-39
2021/12/28 08:35:05;;;;;;;;;;;;;;;14.08;62.42;100676.97;6157140;23;1935;-39
2021/12/28 08:37:32;;;;;;;;;;;;;;;14.17;61.71;100693.28;6157154;23;1006;-39
2021/12/28 08:39:59;;;;;;;;;;;;;;;14.16;63.09;100684.44;6157215;23;951;-38
2021/12/28 08:42:26;;;;;;;;;;;;;;;14.11;62.78;100678.59;6157061;23;1045;-39
2021/12/28 08:44:52;;;;;;;;;;;;;;;14.11;62.12;100678.59;6156775;23;1055;-39
2021/12/28 08:47:22;;;;;;;;;;;;;;;14.15;62.33;100680.09;6157015;23;1022;-39
2021/12/28 08:49:48;;;;;;;;;;;;;;;14.08;62.32;100673.47;6157439;23;1059;-38
2021/12/28 08:52:15;;;;;;;;;;;;;;;14.07;62.16;100669.97;6156983;23;999;-39
2021/12/28 08:54:41;;;;;;;;;;;;;;;14.07;62.38;100677.09;6156865;23;1944;-39
2021/12/28 08:57:09;;;;;;;;;;;;;;;14.05;62.23;100671.03;6156411;23;1103;-39
2021/12/28 08:59:35;;;;;;;;;;;;;;;14.05;62.08;100658.59;6156987;23;1010;-39
2021/12/28 09:02:02;;;;;;;;;;;;;;;14.04;62.40;100661.34;6156159;23;1394;-39
2021/12/28 09:04:28;;;;;;;;;;;;;;;14.08;61.91;100674.31;6156904;23;1079;-39
2021/12/28 09:06:55;;;;;;;;;;;;;;;14.03;62.93;100667.63;6156510;23;1067;-39
2021/12/28 09:09:21;;;;;;;;;;;;;;;14.04;62.26;100669.31;6156807;23;998;-39
2021/12/28 09:11:48;;;;;;;;;;;;;;;14.06;62.21;100665.59;6157021;23;1062;-39
2021/12/28 09:14:16;;;;;;;;;;;;;;;14.06;63.18;100646.97;6156713;23;1897;-39
2021/12/28 09:16:42;;;;;;;;;;;;;;;14.06;61.82;100656.78;6156887;23;1014;-39
2021/12/28 09:19:09;;;;;;;;;;;;;;;14.11;62.12;100654.66;6157052;23;1015;-39
2021/12/28 09:21:35;;;;;;;;;;;;;;;14.09;62.80;100659.25;6156788;23;1053;-39
2021/12/28 09:24:02;;;;;;;;;;;;;;;14.04;62.41;100645.41;6156591;23;1081;-38
2021/12/28 09:26:28;;;;;;;;;;;;;;;14.03;61.67;100643.72;6156382;23;1083;-38
2021/12/28 09:28:54;;;;;;;;;;;;;;;14.00;62.00;100635.94;6156656;23;1042;-39
2021/12/28 09:31:22;;;;;;;;;;;;;;;14.05;62.29;100642.63;6156662;23;1023;-41
2021/12/28 09:33:49;;;;;;;;;;;;;;;14.05;62.54;100647.13;6156693;23;1085;-39
2021/12/28 09:36:16;;;;;;;;;;;;;;;14.07;62.93;100639.88;6156611;23;1893;-39
2021/12/28 09:38:44;;;;;;;;;;;;;;;14.07;61.90;100640.72;6156514;23;1014;-39
2021/12/28 09:41:11;;;;;;;;;;;;;;;14.07;63.14;100629.25;6156232;23;1153;-39
2021/12/28 09:43:38;;;;;;;;;;;;;;;14.04;63.34;100632.09;6156933;23;1078;-39
2021/12/28 09:46:04;;;;;;;;;;;;;;;14.02;62.11;100634.84;6156198;23;1110;-39
2021/12/28 09:48:32;;;;;;;;;;;;;;;14.04;62.47;100629.44;6156508;23;1081;-40
2021/12/28 09:50:59;;;;;;;;;;;;;;;14.02;62.91;100621.56;6156580;23;1023;-39
2021/12/28 09:53:25;;;;;;;;;;;;;;;14.01;62.06;100608.41;6156748;23;990;-39
2021/12/28 09:55:52;;;;;;;;;;;;;;;14.05;62.71;100617.88;6156113;23;1896;-39
2021/12/28 09:58:18;;;;;;;;;;;;;;;14.02;62.33;100610.09;6156392;23;1050;-38
2021/12/28 10:00:45;;;;;;;;;;;;;;;14.01;61.91;100619.88;6156360;23;1062;-39
2021/12/28 10:03:12;;;;;;;;;;;;;;;14.01;62.18;100624.34;6155614;23;1399;-39
2021/12/28 10:05:40;;;;;;;;;;;;;;;14.06;62.14;100632.84;6156072;23;1130;-39
2021/12/28 10:08:07;;;;;;;;;;;;;;;13.99;61.91;100629.78;6156231;23;1081;-39
2021/12/28 10:10:34;;;;;;;;;;;;;;;13.99;62.13;100626.28;6156410;23;1131;-39
2021/12/28 10:13:01;;;;;;;;;;;;;;;13.96;62.04;100631.78;6155869;23;1145;-39
2021/12/28 10:15:30;;;;;;;;;;;;;;;13.92;62.00;100621.34;6156070;23;1935;-38
2021/12/28 10:17:57;;;;;;;;;;;;;;;13.97;62.09;100633.50;6155892;23;1086;-39
2021/12/28 10:20:25;;;;;;;;;;;;;;;13.96;63.50;100627.31;6156058;23;1081;-39
2021/12/28 10:22:54;;;;;;;;;;;;;;;13.95;62.36;100622.97;6156134;23;991;-39
2021/12/28 10:25:23;;;;;;;;;;;;;;;13.98;63.16;100628.06;6156249;23;1104;-39
2021/12/28 10:27:50;;;;;;;;;;;;;;;13.98;62.39;100624.56;6155775;23;1325;-39
2021/12/28 10:30:18;;;;;;;;;;;;;;;13.90;62.23;100611.78;6156337;23;1091;-39
2021/12/28 10:32:46;;;;;;;;;;;;;;;13.94;62.21;100623.91;6155982;23;991;-39
2021/12/28 10:35:13;;;;;;;;;;;;;;;13.97;62.15;100630.84;6156089;23;1935;-39
2021/12/28 10:37:41;;;;;;;;;;;;;;;13.99;62.77;100626.28;6156319;23;1086;-39
2021/12/28 10:40:10;;;;;;;;;;;;;;;13.98;63.30;100619.25;6156211;23;1089;-39
2021/12/28 10:42:42;;;;;;;;;;;;;;;13.99;61.96;100613.81;6156129;23;1062;-39
2021/12/28 10:45:10;;;;;;;;;;;;;;;13.96;62.00;100610.50;6155775;23;1002;-39
2021/12/28 10:47:36;;;;;;;;;;;;;;;13.92;62.68;100604.56;6155722;23;936;-39
2021/12/28 10:50:08;;;;;;;;;;;;;;;13.95;62.08;100608.81;6156535;23;990;-39
2021/12/28 10:52:39;;;;;;;;;;;;;;;13.96;62.54;100615.84;6156027;23;1058;-40
2021/12/28 10:55:23;;;;;;;;;;;;;;;13.99;61.68;100624.44;6155925;23;1893;-39
2021/12/28 10:57:49;;;;;;;;;;;;;;;13.96;62.11;100602.53;6155577;23;1131;-39
2021/12/28 11:00:25;;;;;;;;;;;;;;;13.90;63.37;100622.41;6155697;23;1074;-39
2021/12/28 11:02:52;;;;;;;;;;;;;;;13.92;62.27;100618.69;6155314;23;1460;-38
2021/12/28 11:05:31;;;;;;;;;;;;;;;13.97;62.22;100617.56;6156457;23;1069;-39
2021/12/28 11:07:58;;;;;;;;;;;;;;;13.92;62.43;100613.38;6155883;23;1019;-38
2021/12/28 11:10:28;;;;;;;;;;;;;;;13.91;63.16;100619.66;6155531;23;1111;-39
2021/12/28 11:12:55;;;;;;;;;;;;;;;13.90;62.83;100612.63;6155979;23;1089;-38
2021/12/28 11:15:22;;;;;;;;;;;;;;;13.95;62.11;100627.41;6155892;23;1938;-39
2021/12/28 11:17:48;;;;;;;;;;;;;;;13.92;62.92;100625.81;6155607;23;1083;-39
2021/12/28 11:20:15;;;;;;;;;;;;;;;13.94;61.97;100629.22;6156488;23;1034;-39
2021/12/28 11:23:01;;;;;;;;;;;;;;;13.92;62.29;100626.66;6155853;23;1011;-39
2021/12/28 11:25:30;;;;;;;;;;;;;;;14.00;62.63;100627.97;6155401;23;2114;-39
2021/12/28 11:28:11;;;;;;;;;;;;;;;13.93;63.36;100616.91;6155619;23;1047;-39
2021/12/28 11:30:38;;;;;;;;;;;;;;;13.91;62.32;100621.47;6155497;23;1063;-39
2021/12/28 11:33:05;;;;;;;;;;;;;;;13.93;62.51;100620.41;6155740;23;1067;-39
2021/12/28 11:35:32;;;;;;;;;;;;;;;13.93;61.89;100622.22;6156226;23;1940;-39
2021/12/28 11:37:59;;;;;;;;;;;;;;;13.89;62.33;100602.97;6155920;23;1157;-39
2021/12/28 11:40:25;;;;;;;;;;;;;;;13.85;63.37;100595.31;6155378;23;1079;-39
2021/12/28 11:42:54;;;;;;;;;;;;;;;13.85;63.00;100596.16;6155768;23;1077;-40
2021/12/28 11:45:21;;;;;;;;;;;;;;;13.86;62.59;100589.88;6155781;23;1050;-39
2021/12/28 11:47:47;;;;;;;;;;;;;;;13.87;63.27;100594.25;6155838;23;1064;-38
2021/12/28 11:50:14;;;;;;;;;;;;;;;13.82;62.30;100588.38;6156268;23;1054;-39
2021/12/28 11:52:40;;;;;;;;;;;;;;;13.78;63.21;100589.56;6155511;23;1091;-39
2021/12/28 11:55:10;;;;;;;;;;;;;;;13.82;62.48;100596.38;6155544;23;1976;-39
2021/12/28 11:57:36;;;;;;;;;;;;;;;13.86;62.91;100597.84;6157602;23;1066;-39
2021/12/28 12:00:06;;;;;;;;;;;;;;;13.90;62.95;100595.84;6157434;23;1061;-39
2021/12/28 12:02:35;;;;;;;;;;;;;;;13.86;63.70;100594.34;6156727;23;1453;-39
2021/12/28 12:05:12;;;;;;;;;;;;;;;13.86;62.88;100584.56;6157481;23;1071;-39
2021/12/28 12:07:39;;;;;;;;;;;;;;;13.89;62.13;100594.16;6157455;23;1067;-39
2021/12/28 12:10:13;;;;;;;;;;;;;;;13.86;62.90;100589.88;6157090;23;1126;-39
2021/12/28 12:12:48;;;;;;;;;;;;;;;13.85;62.98;100593.50;6156977;23;1083;-39
2021/12/28 12:15:16;;;;;;;;;;;;;;;13.83;62.99;100599.91;6157274;23;1896;-39
2021/12/28 12:17:44;;;;;;;;;;;;;;;13.83;62.36;100595.41;6157389;23;1065;-38
2021/12/28 12:20:23;;;;;;;;;;;;;;;13.83;62.23;100584.78;6157711;23;1022;-39
2021/12/28 12:22:51;;;;;;;;;;;;;;;13.90;62.10;100587.88;6157342;23;994;-39
2021/12/28 12:25:19;;;;;;;;;;;;;;;13.83;63.21;100590.09;6157263;23;986;-38
2021/12/28 12:27:47;;;;;;;;;;;;;;;13.84;62.46;100599.75;6156921;23;1119;-39
2021/12/28 12:30:32;;;;;;;;;;;;;;;13.82;63.38;100588.38;6157214;23;995;-39
2021/12/28 12:33:04;;;;;;;;;;;;;;;13.85;63.77;100598.81;6156811;23;1125;-39
2021/12/28 12:35:32;;;;;;;;;;;;;;;13.79;62.17;100588.63;6157618;23;1905;-38
2021/12/28 12:37:59;;;;;;;;;;;;;;;13.79;63.00;100595.75;6157119;23;1066;-39
2021/12/28 12:40:40;;;;;;;;;;;;;;;13.85;63.20;100592.66;6156713;23;1102;-39
2021/12/28 12:43:09;;;;;;;;;;;;;;;13.80;63.07;100592.97;6156823;23;1090;-39
2021/12/28 12:45:54;;;;;;;;;;;;;;;13.82;62.45;100599.03;6157011;23;1091;-39
2021/12/28 12:48:31;;;;;;;;;;;;;;;13.79;63.33;100598.41;6155664;23;1626;-38
2021/12/28 12:51:13;;;;;;;;;;;;;;;13.81;62.38;100599.16;6157092;23;1003;-39